createdAt,value
2023-05-24T00:01:49.341Z,96170.47
2023-05-24T00:04:20.288Z,96160.78
2023-05-24T00:06:49.539Z,96143.44
2023-05-24T00:09:19.032Z,96163.25
2023-05-24T00:11:48.404Z,96139.03
2023-05-24T00:14:15.445Z,96142.69
2023-05-24T00:16:46.754Z,96130.72
2023-05-24T00:19:18.661Z,96128.59
2023-05-24T00:21:46.916Z,96164.38
2023-05-24T00:24:17.604Z,96151.84
2023-05-24T00:26:48.691Z,96149.69
2023-05-24T00:29:17.927Z,96146.81
2023-05-24T00:31:44.856Z,96151.91
2023-05-24T00:34:11.937Z,96146.69
2023-05-24T00:36:43.589Z,96160.34
2023-05-24T00:39:10.677Z,96162.72
2023-05-24T00:41:39.788Z,96141.50
2023-05-24T00:44:11.809Z,96145.34
2023-05-24T00:46:39.663Z,96151.91
2023-05-24T00:49:11.904Z,96148.66
2023-05-24T00:51:41.228Z,96148.22
2023-05-24T00:54:08.262Z,96153.25
2023-05-24T00:56:35.809Z,96149.63
2023-05-24T00:59:03.247Z,96124.06
2023-05-24T01:01:34.564Z,96137.22
2023-05-24T01:04:02.117Z,96148.03
2023-05-24T01:06:33.322Z,96131.81
2023-05-24T01:09:03.296Z,96138.06
2023-05-24T01:11:51.036Z,96134.22
2023-05-24T01:14:26.933Z,96133.72
2023-05-24T01:17:04.930Z,96130.66
2023-05-24T01:19:51.410Z,96137.16
2023-05-24T01:22:47.194Z,96134.22
2023-05-24T01:25:39.189Z,96132.00
2023-05-24T01:28:10.623Z,96123.09
2023-05-24T01:30:41.990Z,96126.75
2023-05-24T01:33:09.254Z,96120.03
2023-05-24T01:35:40.659Z,96130.53
2023-05-24T01:38:12.325Z,96134.81
2023-05-24T01:40:40.767Z,96123.56
2023-05-24T01:43:36.066Z,96133.25
2023-05-24T01:46:21.250Z,96135.38
2023-05-24T01:49:20.766Z,96133.91
2023-05-24T01:52:02.295Z,96138.94
2023-05-24T01:54:33.494Z,96121.97
2023-05-24T01:57:05.639Z,96151.03
2023-05-24T01:59:33.761Z,96139.53
2023-05-24T02:02:01.818Z,96135.75
2023-05-24T02:04:29.020Z,96168.97
2023-05-24T02:06:55.834Z,96100.00
2023-05-24T02:09:24.936Z,96139.41
2023-05-24T02:11:51.928Z,96128.03
2023-05-24T02:14:20.101Z,96120.50
2023-05-24T02:16:51.062Z,96127.31
2023-05-24T02:19:19.163Z,96087.59
2023-05-24T02:21:48.415Z,96128.94
2023-05-24T02:24:20.150Z,96129.31
2023-05-24T02:26:47.123Z,96135.69
2023-05-24T02:29:16.761Z,96115.38
2023-05-24T02:31:43.668Z,96125.41
2023-05-24T02:34:10.711Z,96126.25
2023-05-24T02:36:37.688Z,96127.66
2023-05-24T02:39:06.887Z,96088.16
2023-05-24T02:41:33.829Z,96138.63
2023-05-24T02:44:00.846Z,96110.03
2023-05-24T02:46:27.836Z,96118.13
2023-05-24T02:48:57.141Z,96126.00
2023-05-24T02:51:26.818Z,96106.31
2023-05-24T02:53:53.651Z,96119.41
2023-05-24T02:56:22.254Z,96124.72
2023-05-24T02:58:49.161Z,96103.25
2023-05-24T03:01:16.277Z,96109.88
2023-05-24T03:03:45.796Z,96108.28
2023-05-24T03:06:15.586Z,96127.34
2023-05-24T03:08:42.560Z,96129.97
2023-05-24T03:11:09.497Z,96110.59
2023-05-24T03:13:38.660Z,96112.69
2023-05-24T03:16:08.701Z,96119.78
2023-05-24T03:18:36.266Z,96130.72
2023-05-24T03:21:03.201Z,96135.72
2023-05-24T03:23:38.662Z,96116.78
2023-05-24T03:26:07.604Z,96113.78
2023-05-24T03:28:40.893Z,96109.97
2023-05-24T03:31:08.627Z,96129.59
2023-05-24T03:33:36.646Z,96114.38
2023-05-24T03:36:04.461Z,96126.66
2023-05-24T03:38:34.440Z,96130.78
2023-05-24T03:41:03.986Z,96122.03
2023-05-24T03:43:33.965Z,96136.75
2023-05-24T03:46:03.549Z,96138.81
2023-05-24T03:48:33.008Z,96142.97
2023-05-24T03:51:04.629Z,96146.63
2023-05-24T03:53:35.717Z,96145.78
2023-05-24T03:56:02.853Z,96113.38
2023-05-24T03:58:29.814Z,96132.25
2023-05-24T04:00:56.833Z,96144.00
2023-05-24T04:03:26.404Z,96131.75
2023-05-24T04:05:55.219Z,96153.31
2023-05-24T04:08:24.316Z,96133.56
2023-05-24T04:10:51.194Z,96132.75
2023-05-24T04:13:20.619Z,96156.00
2023-05-24T04:15:52.268Z,96156.13
2023-05-24T04:18:21.972Z,96160.34
2023-05-24T04:20:51.242Z,96126.59
2023-05-24T04:23:20.094Z,96155.88
2023-05-24T04:25:47.344Z,96142.03
2023-05-24T04:28:15.476Z,96159.50
2023-05-24T04:30:42.595Z,96146.97
2023-05-24T04:33:09.578Z,96116.56
2023-05-24T04:35:36.533Z,96168.47
2023-05-24T04:38:04.353Z,96136.78
2023-05-24T04:40:35.653Z,96157.97
2023-05-24T04:43:02.985Z,96144.13
2023-05-24T04:45:33.409Z,96142.66
2023-05-24T04:48:05.295Z,96153.56
2023-05-24T04:50:35.534Z,96151.78
2023-05-24T04:53:05.272Z,96140.38
2023-05-24T04:55:32.865Z,96145.00
2023-05-24T04:58:01.896Z,96164.84
2023-05-24T05:00:28.795Z,96163.13
2023-05-24T05:02:55.698Z,96138.16
2023-05-24T05:05:25.006Z,96175.22
2023-05-24T05:07:51.911Z,96167.16
2023-05-24T05:10:23.607Z,96172.94
2023-05-24T05:12:51.182Z,96180.28
2023-05-24T05:15:18.122Z,96165.66
2023-05-24T05:17:47.480Z,96169.56
2023-05-24T05:20:17.037Z,96177.34
2023-05-24T05:22:49.872Z,96171.69
2023-05-24T05:25:19.303Z,96164.47
2023-05-24T05:27:46.268Z,96170.00
2023-05-24T05:30:13.494Z,96172.72
2023-05-24T05:32:40.590Z,96171.88
2023-05-24T05:35:08.224Z,96180.75
2023-05-24T05:37:37.325Z,96176.06
2023-05-24T05:40:07.354Z,96177.53
2023-05-24T05:42:34.197Z,96179.81
2023-05-24T05:45:01.275Z,96162.09
2023-05-24T05:47:32.514Z,96181.13
2023-05-24T05:49:59.390Z,96165.25
2023-05-24T05:52:31.181Z,96156.84
2023-05-24T05:54:59.413Z,96131.78
2023-05-24T05:57:33.707Z,96133.97
2023-05-24T06:00:03.606Z,96165.84
2023-05-24T06:02:41.418Z,96144.28
2023-05-24T06:05:09.120Z,96133.69
2023-05-24T06:07:39.028Z,96149.78
2023-05-24T06:10:08.716Z,96141.19
2023-05-24T06:12:38.287Z,96144.16
2023-05-24T06:15:06.899Z,96144.94
2023-05-24T06:17:37.227Z,96148.63
2023-05-24T06:20:12.275Z,96141.94
2023-05-24T06:22:45.215Z,96150.31
2023-05-24T06:25:15.112Z,96151.66
2023-05-24T06:27:44.239Z,96145.63
2023-05-24T06:30:11.678Z,96156.13
2023-05-24T06:32:40.992Z,96121.72
2023-05-24T06:35:13.096Z,96149.50
2023-05-24T06:37:40.217Z,96144.66
2023-05-24T06:40:10.452Z,96151.59
2023-05-24T06:42:40.167Z,96143.44
2023-05-24T06:45:11.982Z,96158.59
2023-05-24T06:47:41.244Z,96152.84
2023-05-24T06:50:12.931Z,96160.94
2023-05-24T06:52:42.283Z,96158.16
2023-05-24T06:55:16.959Z,96161.16
2023-05-24T06:57:43.888Z,96155.41
2023-05-24T07:00:18.231Z,96146.66
2023-05-24T07:02:47.315Z,96165.56
2023-05-24T07:05:16.530Z,96172.19
2023-05-24T07:07:46.262Z,96167.25
2023-05-24T07:10:20.453Z,96169.19
2023-05-24T07:12:47.335Z,96168.13
2023-05-24T07:15:21.537Z,96169.53
2023-05-24T07:17:54.480Z,96168.34
2023-05-24T07:20:26.250Z,96176.25
2023-05-24T07:22:55.285Z,96161.19
2023-05-24T07:25:29.204Z,96159.72
2023-05-24T07:27:56.159Z,96170.09
2023-05-24T07:33:05.230Z,96177.66
2023-05-24T07:35:38.786Z,96184.94
2023-05-24T07:38:07.965Z,96170.31
2023-05-24T07:40:39.674Z,96182.19
2023-05-24T07:43:11.268Z,96178.66
2023-05-24T07:45:45.705Z,96175.78
2023-05-24T07:48:14.953Z,96177.19
2023-05-24T07:50:48.992Z,96180.97
2023-05-24T07:53:16.257Z,96158.63
2023-05-24T07:55:45.481Z,96166.56
2023-05-24T07:58:14.827Z,96184.66
2023-05-24T08:00:43.872Z,96167.97
2023-05-24T08:03:20.360Z,96161.63
2023-05-24T08:05:50.468Z,96179.13
2023-05-24T08:08:20.575Z,96174.78
2023-05-24T08:10:51.975Z,96183.41
2023-05-24T08:13:21.355Z,96182.00
2023-05-24T08:15:50.836Z,96183.28
2023-05-24T08:18:17.682Z,96188.56
2023-05-24T08:20:46.973Z,96184.88
2023-05-24T08:23:19.279Z,96189.28
2023-05-24T08:25:48.962Z,96185.75
2023-05-24T08:28:17.150Z,96184.81
2023-05-24T08:30:48.816Z,96196.63
2023-05-24T08:33:26.362Z,96187.22
2023-05-24T08:35:55.373Z,96201.91
2023-05-24T08:38:24.594Z,96194.81
2023-05-24T08:40:56.806Z,96192.53
2023-05-24T08:43:27.364Z,96197.69
2023-05-24T08:45:59.320Z,96209.31
2023-05-24T08:48:31.547Z,96207.91
2023-05-24T08:50:58.912Z,96205.09
2023-05-24T08:53:28.130Z,96184.34
2023-05-24T08:55:59.956Z,96213.66
2023-05-24T08:58:35.181Z,96207.25
2023-05-24T09:01:09.613Z,96198.47
2023-05-24T09:03:41.045Z,96209.44
2023-05-24T09:06:17.931Z,96198.75
2023-05-24T09:08:47.847Z,96199.34
2023-05-24T09:11:19.819Z,96188.94
2023-05-24T09:13:48.226Z,96208.50
2023-05-24T09:16:17.710Z,96202.56
2023-05-24T09:18:47.191Z,96196.94
2023-05-24T09:21:23.318Z,96191.81
2023-05-24T09:23:50.687Z,96215.72
2023-05-24T09:26:19.871Z,96216.47
2023-05-24T09:28:50.910Z,96210.03
2023-05-24T09:31:32.050Z,96208.50
2023-05-24T09:33:58.897Z,96212.25
2023-05-24T09:36:26.344Z,96213.00
2023-05-24T09:39:10.145Z,96210.91
2023-05-24T09:41:39.784Z,96210.13
2023-05-24T09:44:08.914Z,96210.72
2023-05-24T09:46:40.724Z,96215.19
2023-05-24T09:49:10.125Z,96220.22
2023-05-24T09:51:39.209Z,96221.00
2023-05-24T09:54:11.449Z,96198.34
2023-05-24T09:56:44.501Z,96210.31
2023-05-24T09:59:15.199Z,96212.50
2023-05-24T10:01:47.458Z,96214.53
2023-05-24T10:04:17.037Z,96216.06
2023-05-24T10:06:48.249Z,96222.69
2023-05-24T10:09:15.425Z,96221.22
2023-05-24T10:11:42.671Z,96222.53
2023-05-24T10:14:10.047Z,96209.63
2023-05-24T10:16:41.506Z,96222.75
2023-05-24T10:19:08.538Z,96203.09
2023-05-24T10:21:43.412Z,96222.09
2023-05-24T10:24:14.213Z,96226.38
2023-05-24T10:26:44.517Z,96224.28
2023-05-24T10:29:26.849Z,96227.91
2023-05-24T10:31:57.656Z,96231.50
2023-05-24T10:34:24.676Z,96226.50
2023-05-24T10:36:54.847Z,96235.13
2023-05-24T10:39:23.161Z,96227.16
2023-05-24T10:41:58.706Z,96233.66
2023-05-24T10:44:33.677Z,96209.44
2023-05-24T10:47:13.431Z,96229.25
2023-05-24T10:49:52.037Z,96226.09
2023-05-24T10:52:23.695Z,96231.38
2023-05-24T10:55:05.727Z,96233.53
2023-05-24T10:57:38.588Z,96227.72
2023-05-24T11:00:33.722Z,96236.41
2023-05-24T11:03:09.666Z,96239.28
2023-05-24T11:05:50.291Z,96236.34
2023-05-24T11:08:30.433Z,96220.28
2023-05-24T11:11:31.365Z,96222.63
2023-05-24T11:14:09.611Z,96228.44
2023-05-24T11:16:46.027Z,96233.41
2023-05-24T11:19:31.376Z,96229.78
2023-05-24T11:22:04.413Z,96238.41
2023-05-24T11:24:39.364Z,96226.81
2023-05-24T11:27:14.366Z,96213.84
2023-05-24T11:29:47.078Z,96226.16
2023-05-24T11:32:21.445Z,96222.63
2023-05-24T11:34:48.888Z,96215.13
2023-05-24T11:37:18.337Z,96221.81
2023-05-24T11:39:55.972Z,96223.28
2023-05-24T11:42:23.926Z,96200.50
2023-05-24T11:44:54.034Z,96207.38
2023-05-24T11:47:23.694Z,96218.06
2023-05-24T11:49:51.857Z,96223.22
2023-05-24T11:52:18.780Z,96218.94
2023-05-24T11:54:45.608Z,96217.41
2023-05-24T11:57:14.806Z,96223.38
2023-05-24T11:59:48.713Z,96224.91
2023-05-24T12:02:23.655Z,96220.41
2023-05-24T12:04:53.114Z,96222.81
2023-05-24T12:07:24.512Z,96219.28
2023-05-24T12:09:53.619Z,96210.44
2023-05-24T12:12:30.609Z,96220.00
2023-05-24T12:15:01.207Z,96217.13
2023-05-24T12:17:32.618Z,96215.13
2023-05-24T12:20:06.600Z,96217.31
2023-05-24T12:22:35.984Z,96219.53
2023-05-24T12:25:03.756Z,96230.34
2023-05-24T12:27:36.574Z,96244.06
2023-05-24T12:30:18.904Z,96223.19
2023-05-24T12:32:49.541Z,96221.06
2023-05-24T12:35:22.046Z,96223.19
2023-05-24T12:37:49.588Z,96227.53
2023-05-24T12:40:17.562Z,96229.75
2023-05-24T12:42:49.605Z,96228.28
2023-05-24T12:45:25.947Z,96226.94
2023-05-24T12:47:58.561Z,96210.22
2023-05-24T12:50:27.823Z,96229.88
2023-05-24T12:53:01.394Z,96232.88
2023-05-24T12:55:34.013Z,96218.25
2023-05-24T12:58:09.715Z,96237.97
2023-05-24T13:00:39.670Z,96237.84
2023-05-24T13:03:11.449Z,96208.13
2023-05-24T13:05:46.263Z,96220.69
2023-05-24T13:08:20.684Z,96216.41
2023-05-24T13:10:50.952Z,96215.59
2023-05-24T13:13:20.309Z,96211.31
2023-05-24T13:15:47.645Z,96209.25
2023-05-24T13:18:17.558Z,96210.72
2023-05-24T13:20:47.097Z,96210.78
2023-05-24T13:23:21.248Z,96214.44
2023-05-24T13:25:48.102Z,96205.88
2023-05-24T13:28:20.599Z,96211.69
2023-05-24T13:30:47.829Z,96190.59
2023-05-24T13:33:19.641Z,96195.78
2023-05-24T13:35:46.518Z,96211.13
2023-05-24T13:38:18.134Z,96201.53
2023-05-24T13:40:48.588Z,96211.28
2023-05-24T13:43:18.266Z,96211.28
2023-05-24T13:45:48.157Z,96203.88
2023-05-24T13:48:17.422Z,96212.75
2023-05-24T13:50:51.420Z,96212.75
2023-05-24T13:53:18.753Z,96214.97
2023-05-24T13:55:45.619Z,96208.25
2023-05-24T13:58:15.835Z,96221.50
2023-05-24T14:00:45.560Z,96219.28
2023-05-24T14:03:13.260Z,96217.84
2023-05-24T14:05:45.100Z,96199.59
2023-05-24T14:08:16.815Z,96208.25
2023-05-24T14:10:47.210Z,96221.34
2023-05-24T14:13:39.557Z,96222.09
2023-05-24T14:16:03.286Z,96220.56
2023-05-24T14:18:30.283Z,96229.09
2023-05-24T14:21:01.696Z,96216.88
2023-05-24T14:23:32.109Z,96216.88
2023-05-24T14:26:02.071Z,96212.59
2023-05-24T14:28:31.470Z,96219.81
2023-05-24T14:30:58.325Z,96221.34
2023-05-24T14:33:25.272Z,96229.25
2023-05-24T14:35:54.768Z,96217.16
2023-05-24T14:38:26.473Z,96222.25
2023-05-24T14:40:59.863Z,96212.22
2023-05-24T14:43:29.318Z,96210.06
2023-05-24T14:45:56.696Z,96215.88
2023-05-24T14:48:25.693Z,96208.00
2023-05-24T14:50:57.821Z,96212.47
2023-05-24T14:53:32.157Z,96208.88
2023-05-24T14:56:05.198Z,96202.53
2023-05-24T14:58:34.421Z,96202.59
2023-05-24T15:01:08.777Z,96207.03
2023-05-24T15:03:40.815Z,96201.97
2023-05-24T15:06:10.170Z,96213.59
2023-05-24T15:08:41.850Z,96209.25
2023-05-24T15:11:11.474Z,96194.81
2023-05-24T15:13:38.755Z,96199.88
2023-05-24T15:16:05.815Z,96199.94
2023-05-24T15:18:34.917Z,96201.50
2023-05-24T15:21:04.289Z,96198.69
2023-05-24T15:23:36.672Z,96197.38
2023-05-24T15:26:08.426Z,96196.72
2023-05-24T15:28:37.824Z,96201.84
2023-05-24T15:31:09.335Z,96190.31
2023-05-24T15:33:38.633Z,96199.78
2023-05-24T15:36:08.150Z,96191.91
2023-05-24T15:38:38.986Z,96183.22
2023-05-24T15:41:08.180Z,96186.91
2023-05-24T15:43:37.541Z,96181.84
2023-05-24T15:46:09.298Z,96160.31
2023-05-24T15:48:36.172Z,96186.28
2023-05-24T15:53:40.391Z,96183.25
2023-05-24T15:56:12.062Z,96176.78
2023-05-24T15:58:44.234Z,96176.03
2023-05-24T16:01:13.381Z,96159.13
2023-05-24T16:03:44.699Z,96160.81
2023-05-24T16:06:16.517Z,96179.94
2023-05-24T16:08:46.074Z,96175.59
2023-05-24T16:11:13.610Z,96175.66
2023-05-24T16:13:40.614Z,96183.72
2023-05-24T16:16:09.969Z,96180.16
2023-05-24T16:18:41.767Z,96175.13
2023-05-24T16:21:11.534Z,96156.84
2023-05-24T16:23:43.464Z,96185.91
2023-05-24T16:26:15.484Z,96167.16
2023-05-24T16:28:49.356Z,96164.38
2023-05-24T16:31:23.190Z,96155.03
2023-05-24T16:33:50.083Z,96154.97
2023-05-24T16:36:23.980Z,96169.53
2023-05-24T16:38:55.601Z,96163.06
2023-05-24T16:41:22.419Z,96164.53
2023-05-24T16:43:51.599Z,96158.13
2023-05-24T16:46:23.971Z,96155.75
2023-05-24T16:48:50.976Z,96160.09
2023-05-24T16:51:22.468Z,96163.81
2023-05-24T16:53:54.131Z,96162.31
2023-05-24T16:56:24.015Z,96142.75
2023-05-24T16:58:53.295Z,96158.06
2023-05-24T17:01:24.884Z,96153.56
2023-05-24T17:03:54.314Z,96168.88
2023-05-24T17:06:25.942Z,96164.59
2023-05-24T17:08:52.779Z,96167.56
2023-05-24T17:11:20.127Z,96169.03
2023-05-24T17:13:50.762Z,96173.38
2023-05-24T17:16:28.770Z,96174.78
2023-05-24T17:18:58.666Z,96169.69
2023-05-24T17:21:30.958Z,96170.44
2023-05-24T17:24:02.565Z,96167.47
2023-05-24T17:26:29.399Z,96173.97
2023-05-24T17:28:56.618Z,96176.13
2023-05-24T17:31:25.894Z,96178.94
2023-05-24T17:33:55.174Z,96185.47
2023-05-24T17:36:33.685Z,96176.75
2023-05-24T17:39:04.900Z,96170.78
2023-05-24T17:41:34.044Z,96177.84
2023-05-24T17:44:05.986Z,96183.88
2023-05-24T17:46:36.815Z,96169.28
2023-05-24T17:49:07.193Z,96179.47
2023-05-24T17:51:39.248Z,96181.69
2023-05-24T17:54:06.526Z,96183.09
2023-05-24T17:56:38.067Z,96178.03
2023-05-24T17:59:11.345Z,96188.78
2023-05-24T18:01:44.186Z,96176.50
2023-05-24T18:04:16.096Z,96167.66
2023-05-24T18:06:42.989Z,96189.44
2023-05-24T18:09:10.551Z,96194.44
2023-05-24T18:11:39.820Z,96191.47
2023-05-24T18:14:08.863Z,96204.34
2023-05-24T18:16:40.655Z,96195.25
2023-05-24T18:19:07.713Z,96201.75
2023-05-24T18:21:39.052Z,96218.28
2023-05-24T18:24:06.078Z,96218.13
2023-05-24T18:26:40.595Z,96221.63
2023-05-24T18:29:12.782Z,96216.44
2023-05-24T18:31:44.418Z,96220.63
2023-05-24T18:34:15.937Z,96216.88
2023-05-24T18:36:47.722Z,96230.38
2023-05-24T18:39:14.695Z,96240.38
2023-05-24T18:41:46.285Z,96235.00
2023-05-24T18:44:17.754Z,96255.22
2023-05-24T18:46:47.409Z,96242.84
2023-05-24T18:49:19.028Z,96242.78
2023-05-24T18:51:50.325Z,96241.88
2023-05-24T18:54:19.717Z,96243.97
2023-05-24T18:56:51.219Z,96245.25
2023-05-24T18:59:18.175Z,96237.78
2023-05-24T19:01:53.228Z,96249.41
2023-05-24T19:04:24.947Z,96250.69
2023-05-24T19:06:54.266Z,96259.25
2023-05-24T19:09:26.869Z,96257.69
2023-05-24T19:11:59.308Z,96262.03
2023-05-24T19:14:26.363Z,96256.91
2023-05-24T19:16:55.745Z,96256.16
2023-05-24T19:19:22.670Z,96261.13
2023-05-24T19:21:53.796Z,96258.91
2023-05-24T19:24:24.465Z,96260.31
2023-05-24T19:26:56.194Z,96260.25
2023-05-24T19:29:25.521Z,96260.88
2023-05-24T19:31:54.718Z,96265.16
2023-05-24T19:34:28.739Z,96270.91
2023-05-24T19:36:56.212Z,96269.31
2023-05-24T19:39:27.618Z,96278.53
2023-05-24T19:41:59.229Z,96276.31
2023-05-24T19:44:31.460Z,96266.69
2023-05-24T19:47:00.584Z,96274.56
2023-05-24T19:49:36.920Z,96293.41
2023-05-24T19:52:09.910Z,96301.25
2023-05-24T19:54:39.657Z,96289.69
2023-05-24T19:57:09.527Z,96285.72
2023-05-24T19:59:36.340Z,96305.47
2023-05-24T20:02:07.944Z,96306.13
2023-05-24T20:04:34.820Z,96296.78
2023-05-24T20:07:02.041Z,96282.78
2023-05-24T20:09:33.566Z,96292.38
2023-05-24T20:12:09.791Z,96283.47
2023-05-24T20:14:42.006Z,96286.94
2023-05-24T20:17:17.757Z,96296.50
2023-05-24T20:19:44.679Z,96273.75
2023-05-24T20:22:17.069Z,96291.94
2023-05-24T20:24:46.462Z,96290.47
2023-05-24T20:27:18.086Z,96293.19
2023-05-24T20:29:45.416Z,96275.03
2023-05-24T20:32:12.321Z,96282.97
2023-05-24T20:34:41.501Z,96283.44
2023-05-24T20:37:08.432Z,96266.84
2023-05-24T20:39:37.557Z,96265.25
2023-05-24T20:42:09.440Z,96248.97
2023-05-24T20:44:38.748Z,96254.88
2023-05-24T20:47:05.811Z,96284.63
2023-05-24T20:49:35.040Z,96272.84
2023-05-24T20:52:04.748Z,96248.53
2023-05-24T20:54:31.558Z,96270.19
2023-05-24T20:56:59.836Z,96247.22
2023-05-24T20:59:26.872Z,96282.19
2023-05-24T21:01:55.997Z,96277.25
2023-05-24T21:04:25.162Z,96278.44
2023-05-24T21:06:52.090Z,96293.50
2023-05-24T21:09:26.041Z,96297.13
2023-05-24T21:11:52.950Z,96257.38
2023-05-24T21:14:24.268Z,96286.66
2023-05-24T21:16:55.509Z,96291.69
2023-05-24T21:19:24.629Z,96286.22
2023-05-24T21:21:54.044Z,96290.19
2023-05-24T21:24:20.973Z,96284.28
2023-05-24T21:26:47.817Z,96291.72
2023-05-24T21:29:14.689Z,96294.59
2023-05-24T21:31:41.720Z,96305.50
2023-05-24T21:34:08.675Z,96300.13
2023-05-24T21:36:40.254Z,96282.38
2023-05-24T21:39:09.916Z,96278.69
2023-05-24T21:41:39.784Z,96278.75
2023-05-24T21:44:08.302Z,96315.94
2023-05-24T21:46:35.337Z,96290.97
2023-05-24T21:49:02.405Z,96292.22
2023-05-24T21:51:29.288Z,96306.88
2023-05-24T21:53:56.416Z,96308.28
2023-05-24T21:56:27.270Z,96312.22
2023-05-24T21:58:56.398Z,96300.59
2023-05-24T22:01:23.327Z,96327.38
2023-05-24T22:03:50.281Z,96305.44
2023-05-24T22:06:17.261Z,96298.94
2023-05-24T22:08:46.731Z,96295.75
2023-05-24T22:11:18.516Z,96311.16
2023-05-24T22:13:45.434Z,96294.22
2023-05-24T22:16:16.873Z,96292.72
2023-05-24T22:18:46.043Z,96299.88
2023-05-24T22:21:14.558Z,96306.03
2023-05-24T22:23:44.183Z,96326.50
2023-05-24T22:26:18.348Z,96309.78
2023-05-24T22:28:56.279Z,96307.75
2023-05-24T22:31:24.130Z,96303.88
2023-05-24T22:33:53.498Z,96323.97
2023-05-24T22:36:25.519Z,96320.13
2023-05-24T22:38:52.361Z,96321.50
2023-05-24T22:41:22.730Z,96309.72
2023-05-24T22:43:52.228Z,96319.31
2023-05-24T22:46:19.138Z,96306.44
2023-05-24T22:48:50.059Z,96305.53
2023-05-24T22:51:22.405Z,96304.13
2023-05-24T22:53:52.966Z,96295.28
2023-05-24T22:56:19.857Z,96304.44
2023-05-24T22:58:46.761Z,96291.09
2023-05-24T23:01:16.643Z,96293.09
2023-05-24T23:03:46.358Z,96299.44
2023-05-24T23:06:16.311Z,96291.28
2023-05-24T23:08:43.524Z,96281.19
2023-05-24T23:11:10.710Z,96297.00
2023-05-24T23:13:42.578Z,96312.97
2023-05-24T23:16:18.222Z,96307.31
2023-05-24T23:18:45.957Z,96286.56
2023-05-24T23:21:18.663Z,96284.94
2023-05-24T23:23:50.511Z,96280.13
2023-05-24T23:26:17.291Z,96270.78
2023-05-24T23:28:44.728Z,96302.81
2023-05-24T23:31:13.938Z,96286.78
2023-05-24T23:33:43.306Z,96295.53
2023-05-24T23:36:12.444Z,96288.16
2023-05-24T23:38:47.123Z,96274.88
2023-05-24T23:41:16.624Z,96285.09
2023-05-24T23:43:45.903Z,96252.53
2023-05-24T23:46:20.080Z,96292.81
2023-05-24T23:48:46.997Z,96298.72
2023-05-24T23:51:16.306Z,96285.59
2023-05-24T23:53:45.813Z,96270.03
2023-05-24T23:56:14.981Z,96303.78
2023-05-24T23:58:42.092Z,96303.78
